createdAt,value
2022-09-17T00:07:05.107Z,6
2022-09-17T00:17:06.216Z,6
2022-09-17T00:27:06.725Z,5
2022-09-17T00:37:08.416Z,4
2022-09-17T00:47:09.332Z,4
2022-09-17T00:57:10.445Z,4
2022-09-17T01:07:11.011Z,4
2022-09-17T01:17:12.443Z,4
2022-09-17T01:27:13.478Z,3
2022-09-17T01:37:15.090Z,3
2022-09-17T01:47:21.391Z,3
2022-09-17T01:57:19.319Z,3
2022-09-17T02:07:21.323Z,3
2022-09-17T02:17:21.610Z,3
2022-09-17T02:27:22.287Z,3
2022-09-17T02:37:23.888Z,3
2022-09-17T02:47:24.996Z,3
2022-09-17T02:57:26.328Z,3
2022-09-17T03:07:27.433Z,3
2022-09-17T03:17:29.116Z,3
2022-09-17T03:27:31.254Z,1
2022-09-17T03:37:33.692Z,3
2022-09-17T03:47:32.455Z,3
2022-09-17T03:57:33.966Z,3
2022-09-17T04:07:34.982Z,2
2022-09-17T04:17:36.203Z,3
2022-09-17T04:27:37.232Z,3
2022-09-17T04:37:38.985Z,1
2022-09-17T04:47:39.893Z,1
2022-09-17T04:57:41.651Z,3
2022-09-17T05:07:42.218Z,1
2022-09-17T05:17:43.534Z,1
2022-09-17T05:27:44.226Z,3
2022-09-17T05:37:45.697Z,1
2022-09-17T05:47:46.555Z,1
2022-09-17T05:57:47.934Z,3
2022-09-17T06:07:48.565Z,3
2022-09-17T06:17:50.253Z,3
2022-09-17T06:27:50.729Z,3
2022-09-17T06:37:52.019Z,3
2022-09-17T06:47:51.736Z,4
2022-09-17T06:57:54.130Z,4
2022-09-17T07:07:53.489Z,4
2022-09-17T07:17:54.827Z,4
2022-09-17T07:27:55.299Z,3
2022-09-17T07:37:56.793Z,3
2022-09-17T07:47:58.189Z,4
2022-09-17T07:57:59.701Z,3
2022-09-17T08:08:00.315Z,3
2022-09-17T08:18:01.786Z,3
2022-09-17T08:28:04.335Z,3
2022-09-17T08:38:04.760Z,4
2022-09-17T08:48:05.342Z,3
2022-09-17T08:58:07.094Z,3
2022-09-17T09:08:07.471Z,3
2022-09-17T09:18:08.705Z,3
2022-09-17T09:28:09.153Z,3
2022-09-17T09:38:10.798Z,3
2022-09-17T09:48:11.503Z,3
2022-09-17T09:58:13.199Z,3
2022-09-17T10:08:14.114Z,3
2022-09-17T10:18:15.463Z,3
2022-09-17T10:28:16.450Z,3
2022-09-17T10:38:17.731Z,3
2022-09-17T10:48:18.685Z,3
2022-09-17T10:58:20.121Z,3
2022-09-17T11:08:20.704Z,3
2022-09-17T11:18:22.154Z,4
2022-09-17T11:28:23.617Z,70
2022-09-17T11:38:24.173Z,153
2022-09-17T11:48:25.614Z,161
2022-09-17T11:58:26.988Z,166
2022-09-17T12:08:27.339Z,144
2022-09-17T12:18:34.032Z,143
2022-09-17T12:28:31.466Z,133
2022-09-17T12:38:34.120Z,124
2022-09-17T12:48:33.904Z,136
2022-09-17T12:58:36.333Z,136
2022-09-17T13:08:36.555Z,134
2022-09-17T13:18:59.514Z,139
2022-09-17T13:28:54.840Z,139
2022-09-17T13:38:56.587Z,146
2022-09-17T13:48:56.940Z,126
2022-09-17T13:58:58.305Z,141
2022-09-17T14:08:59.251Z,123
2022-09-17T14:19:01.083Z,129
2022-09-17T14:29:01.005Z,116
2022-09-17T14:39:02.079Z,121
2022-09-17T14:49:03.001Z,131
2022-09-17T14:59:04.774Z,129
2022-09-17T15:09:05.700Z,123
2022-09-17T15:19:07.835Z,24
2022-09-17T15:29:08.795Z,22
2022-09-17T15:39:09.860Z,22
2022-09-17T15:49:10.112Z,21
2022-09-17T15:59:11.742Z,22
2022-09-17T16:09:12.231Z,22
2022-09-17T16:19:14.203Z,25
2022-09-17T16:29:15.791Z,21
2022-09-17T16:39:16.993Z,24
2022-09-17T16:49:17.775Z,15
2022-09-17T16:59:19.285Z,13
2022-09-17T17:09:19.837Z,12
2022-09-17T17:19:21.844Z,21
2022-09-17T17:29:22.955Z,22
2022-09-17T17:39:25.418Z,15
2022-09-17T17:49:25.899Z,24
2022-09-17T17:59:27.412Z,26
2022-09-17T18:09:28.676Z,26
2022-09-17T18:19:29.865Z,21
2022-09-17T18:29:30.552Z,22
2022-09-17T18:39:57.789Z,22
2022-09-17T18:49:51.532Z,23
2022-09-17T18:59:52.942Z,24
2022-09-17T19:09:53.780Z,24
2022-09-17T19:19:54.868Z,9
2022-09-17T19:29:55.289Z,7
2022-09-17T19:39:56.147Z,8
2022-09-17T19:49:56.423Z,7
2022-09-17T19:59:58.318Z,6
2022-09-17T20:09:58.929Z,7
2022-09-17T20:20:01.844Z,6
2022-09-17T20:30:01.304Z,5
2022-09-17T20:40:02.927Z,4
2022-09-17T20:50:03.194Z,4
2022-09-17T21:00:06.208Z,4
2022-09-17T21:10:07.431Z,6
2022-09-17T21:20:09.705Z,4
2022-09-17T21:30:10.641Z,3
2022-09-17T21:40:12.295Z,4
2022-09-17T21:50:13.332Z,3
2022-09-17T22:00:23.682Z,3
2022-09-17T22:10:21.837Z,3
2022-09-17T22:20:22.106Z,4
2022-09-17T22:30:19.104Z,6
2022-09-17T22:40:18.236Z,6
2022-09-17T22:50:18.923Z,4
2022-09-17T23:00:18.258Z,4
2022-09-17T23:10:18.694Z,4
2022-09-17T23:20:21.441Z,4
2022-09-17T23:30:18.965Z,6
2022-09-17T23:40:19.776Z,4
2022-09-17T23:50:19.287Z,6
